createdAt,value
2024-03-09T00:00:00.418Z,0.090
2024-03-09T00:01:00.371Z,0.090
2024-03-09T00:02:00.504Z,0.135
2024-03-09T00:03:00.389Z,0.135
2024-03-09T00:04:00.413Z,0.135
2024-03-09T00:05:00.621Z,0.135
2024-03-09T00:06:00.392Z,0.135
2024-03-09T00:07:00.438Z,0.090
2024-03-09T00:08:00.522Z,0.090
2024-03-09T00:09:00.566Z,0.090
2024-03-09T00:10:00.387Z,0.090
2024-03-09T00:11:00.422Z,0.090
2024-03-09T00:12:00.468Z,0.090
2024-03-09T00:13:00.407Z,0.090
2024-03-09T00:14:00.468Z,0.090
2024-03-09T00:15:00.435Z,0.090
2024-03-09T00:16:00.375Z,0.090
2024-03-09T00:17:00.534Z,0.090
2024-03-09T00:18:00.539Z,0.090
2024-03-09T00:19:00.440Z,0.090
2024-03-09T00:20:00.594Z,0.090
2024-03-09T00:21:00.548Z,0.090
2024-03-09T00:22:00.465Z,0.090
2024-03-09T00:23:02.164Z,0.090
2024-03-09T00:24:00.511Z,0.090
2024-03-09T00:25:00.447Z,0.135
2024-03-09T00:26:00.508Z,0.090
2024-03-09T00:27:00.399Z,0.090
2024-03-09T00:28:00.409Z,0.090
2024-03-09T00:29:00.486Z,0.090
2024-03-09T00:30:00.441Z,0.090
2024-03-09T00:31:00.389Z,0.090
2024-03-09T00:32:00.552Z,0.090
2024-03-09T00:33:00.608Z,0.090
2024-03-09T00:34:00.413Z,0.090
2024-03-09T00:35:00.566Z,0.090
2024-03-09T00:36:00.408Z,0.090
2024-03-09T00:37:00.436Z,0.090
2024-03-09T00:38:01.034Z,0.090
2024-03-09T00:39:00.406Z,0.090
2024-03-09T00:40:00.449Z,0.090
2024-03-09T00:41:00.474Z,0.090
2024-03-09T00:42:00.498Z,0.090
2024-03-09T00:43:00.563Z,0.090
2024-03-09T00:44:00.470Z,0.090
2024-03-09T00:45:00.427Z,0.090
2024-03-09T00:46:00.384Z,0.090
2024-03-09T00:47:00.467Z,0.090
2024-03-09T00:48:00.553Z,0.090
2024-03-09T00:49:00.393Z,0.090
2024-03-09T00:50:00.552Z,0.090
2024-03-09T00:51:00.446Z,0.090
2024-03-09T00:52:00.407Z,0.090
2024-03-09T00:53:00.414Z,0.090
2024-03-09T00:54:00.509Z,0.090
2024-03-09T00:55:00.385Z,0.090
2024-03-09T00:56:00.507Z,0.090
2024-03-09T00:57:00.431Z,0.090
2024-03-09T00:58:00.388Z,0.090
2024-03-09T00:59:02.997Z,0.090
2024-03-09T01:00:00.366Z,0.090
2024-03-09T01:01:00.438Z,0.090
2024-03-09T01:02:00.630Z,0.090
2024-03-09T01:03:00.399Z,0.090
2024-03-09T01:04:00.419Z,0.090
2024-03-09T01:05:00.546Z,0.090
2024-03-09T01:06:00.394Z,0.090
2024-03-09T01:07:00.420Z,0.090
2024-03-09T01:08:00.425Z,0.090
2024-03-09T01:09:00.419Z,0.090
2024-03-09T01:10:00.417Z,0.090
2024-03-09T01:11:00.600Z,0.090
2024-03-09T01:12:00.515Z,0.090
2024-03-09T01:13:00.515Z,0.090
2024-03-09T01:14:00.481Z,0.090
2024-03-09T01:15:00.408Z,0.090
2024-03-09T01:16:00.489Z,0.090
2024-03-09T01:17:00.561Z,0.090
2024-03-09T01:18:00.461Z,0.090
2024-03-09T01:19:00.422Z,0.090
2024-03-09T01:20:00.490Z,0.090
2024-03-09T01:21:00.437Z,0.090
2024-03-09T01:22:00.397Z,0.090
2024-03-09T01:23:00.454Z,0.090
2024-03-09T01:24:00.397Z,0.090
2024-03-09T01:25:00.410Z,0.090
2024-03-09T01:26:00.649Z,0.090
2024-03-09T01:27:00.414Z,0.090
2024-03-09T01:28:00.386Z,0.090
2024-03-09T01:29:00.527Z,0.090
2024-03-09T01:30:00.656Z,0.090
2024-03-09T01:31:00.377Z,0.090
2024-03-09T01:32:00.482Z,0.090
2024-03-09T01:33:00.581Z,0.090
2024-03-09T01:34:00.382Z,0.090
2024-03-09T01:35:00.562Z,0.090
2024-03-09T01:36:00.373Z,0.090
2024-03-09T01:37:00.388Z,0.135
2024-03-09T01:38:00.424Z,0.135
2024-03-09T01:39:00.439Z,0.090
2024-03-09T01:40:00.368Z,0.090
2024-03-09T01:41:00.536Z,0.090
2024-03-09T01:42:00.416Z,0.090
2024-03-09T01:43:00.407Z,0.090
2024-03-09T01:44:00.405Z,0.090
2024-03-09T01:45:00.420Z,0.090
2024-03-09T01:46:00.400Z,0.045
2024-03-09T01:47:00.434Z,0.045
2024-03-09T01:48:00.410Z,0.045
2024-03-09T01:49:00.387Z,0.045
2024-03-09T01:50:00.583Z,0.045
2024-03-09T01:51:00.415Z,0.045
2024-03-09T01:52:00.457Z,0.045
2024-03-09T01:53:00.454Z,0.045
2024-03-09T01:54:00.417Z,0.045
2024-03-09T01:55:00.406Z,0.045
2024-03-09T01:56:00.638Z,0.090
2024-03-09T01:57:00.430Z,0.090
2024-03-09T01:58:00.513Z,0.045
2024-03-09T01:59:00.526Z,0.045
2024-03-09T02:00:00.441Z,0.045
2024-03-09T02:01:00.471Z,0.045
2024-03-09T02:02:00.572Z,0.045
2024-03-09T02:03:00.383Z,0.045
2024-03-09T02:04:00.516Z,0.090
2024-03-09T02:05:00.416Z,0.045
2024-03-09T02:06:00.374Z,0.045
2024-03-09T02:07:00.362Z,0.045
2024-03-09T02:08:00.438Z,0.045
2024-03-09T02:09:00.393Z,0.045
2024-03-09T02:10:00.451Z,0.090
2024-03-09T02:11:00.613Z,0.090
2024-03-09T02:12:00.455Z,0.045
2024-03-09T02:13:00.388Z,0.045
2024-03-09T02:14:00.434Z,0.045
2024-03-09T02:15:00.400Z,0.045
2024-03-09T02:16:00.436Z,0.045
2024-03-09T02:17:00.443Z,0.045
2024-03-09T02:18:00.432Z,0.045
2024-03-09T02:19:00.405Z,0.045
2024-03-09T02:20:00.462Z,0.045
2024-03-09T02:21:00.381Z,0.045
2024-03-09T02:22:00.477Z,0.045
2024-03-09T02:23:00.430Z,0.045
2024-03-09T02:24:00.379Z,0.045
2024-03-09T02:25:00.371Z,0.045
2024-03-09T02:26:00.466Z,0.045
2024-03-09T02:27:00.420Z,0.045
2024-03-09T02:28:01.812Z,0.045
2024-03-09T02:29:00.540Z,0.045
2024-03-09T02:30:00.370Z,0.045
2024-03-09T02:31:00.377Z,0.045
2024-03-09T02:32:00.439Z,0.045
2024-03-09T02:33:00.430Z,0.045
2024-03-09T02:34:00.372Z,0.090
2024-03-09T02:35:00.524Z,0.090
2024-03-09T02:36:00.363Z,0.090
2024-03-09T02:37:00.519Z,0.090
2024-03-09T02:38:00.439Z,0.090
2024-03-09T02:39:00.357Z,0.090
2024-03-09T02:40:00.371Z,0.090
2024-03-09T02:41:00.589Z,0.090
2024-03-09T02:42:00.755Z,0.090
2024-03-09T02:43:00.532Z,0.090
2024-03-09T02:44:00.506Z,0.090
2024-03-09T02:45:00.360Z,0.090
2024-03-09T02:46:00.420Z,0.090
2024-03-09T02:47:00.443Z,0.090
2024-03-09T02:48:00.419Z,0.090
2024-03-09T02:49:00.491Z,0.090
2024-03-09T02:50:00.544Z,0.135
2024-03-09T02:51:00.472Z,0.135
2024-03-09T02:52:00.477Z,0.135
2024-03-09T02:53:00.404Z,0.180
2024-03-09T02:54:00.388Z,0.180
2024-03-09T02:55:00.450Z,0.180
2024-03-09T02:56:00.463Z,0.180
2024-03-09T02:57:00.376Z,0.225
2024-03-09T02:58:00.392Z,0.225
2024-03-09T02:59:00.419Z,0.360
2024-03-09T03:00:00.389Z,0.405
2024-03-09T03:01:00.607Z,0.495
2024-03-09T03:02:00.456Z,0.585
2024-03-09T03:03:00.389Z,0.810
2024-03-09T03:04:00.394Z,1.035
2024-03-09T03:05:00.411Z,1.035
2024-03-09T03:06:00.373Z,1.620
2024-03-09T03:07:00.435Z,2.070
2024-03-09T03:08:00.429Z,2.070
2024-03-09T03:09:00.451Z,2.565
2024-03-09T03:10:00.388Z,3.915
2024-03-09T03:11:00.550Z,3.915
2024-03-09T03:12:00.451Z,4.815
2024-03-09T03:13:00.438Z,5.805
2024-03-09T03:14:00.436Z,8.280
2024-03-09T03:15:00.449Z,9.855
2024-03-09T03:16:00.421Z,11.790
2024-03-09T03:17:00.514Z,13.950
2024-03-09T03:18:00.417Z,16.290
2024-03-09T03:19:00.421Z,16.290
2024-03-09T03:20:00.466Z,22.410
2024-03-09T03:21:00.444Z,26.100
2024-03-09T03:22:00.372Z,29.880
2024-03-09T03:23:00.532Z,33.840
2024-03-09T03:24:00.411Z,33.840
2024-03-09T03:25:00.503Z,42.300
2024-03-09T03:26:00.473Z,42.300
2024-03-09T03:27:00.468Z,47.160
2024-03-09T03:28:00.417Z,53.280
2024-03-09T03:29:00.479Z,59.040
2024-03-09T03:30:00.515Z,66.600
2024-03-09T03:31:00.509Z,74.520
2024-03-09T03:32:00.596Z,92.160
2024-03-09T03:33:00.516Z,102.240
2024-03-09T03:34:00.359Z,102.240
2024-03-09T03:35:00.413Z,113.040
2024-03-09T03:36:00.372Z,131.760
2024-03-09T03:37:00.372Z,131.760
2024-03-09T03:38:00.541Z,143.280
2024-03-09T03:39:00.501Z,154.080
2024-03-09T03:40:00.434Z,166.320
2024-03-09T03:41:00.464Z,179.280
2024-03-09T03:42:00.481Z,194.400
2024-03-09T03:43:00.430Z,207.360
2024-03-09T03:44:00.511Z,221.760
2024-03-09T03:45:00.397Z,236.160
2024-03-09T03:46:00.438Z,252.000
2024-03-09T03:47:00.546Z,270.720
2024-03-09T03:48:00.442Z,293.760
2024-03-09T03:49:00.375Z,316.800
2024-03-09T03:50:00.425Z,344.160
2024-03-09T03:51:00.444Z,374.400
2024-03-09T03:52:00.509Z,400.320
2024-03-09T03:53:00.608Z,423.360
2024-03-09T03:54:00.393Z,446.400
2024-03-09T03:55:00.397Z,472.320
2024-03-09T03:56:00.455Z,498.240
2024-03-09T03:57:00.364Z,532.800
2024-03-09T03:58:00.394Z,570.240
2024-03-09T03:59:00.482Z,610.560
2024-03-09T04:00:00.506Z,645.120
2024-03-09T04:01:00.439Z,682.560
2024-03-09T04:02:00.433Z,722.880
2024-03-09T04:03:00.420Z,743.040
2024-03-09T04:04:00.394Z,771.840
2024-03-09T04:05:00.588Z,806.400
2024-03-09T04:06:00.403Z,921.600
2024-03-09T04:07:00.380Z,921.600
2024-03-09T04:08:00.569Z,990.720
2024-03-09T04:09:00.395Z,1100.160
2024-03-09T04:10:00.396Z,1163.520
2024-03-09T04:11:00.591Z,1232.640
2024-03-09T04:12:00.469Z,1319.040
2024-03-09T04:13:00.521Z,1411.200
2024-03-09T04:14:00.502Z,1520.640
2024-03-09T04:15:00.386Z,1647.360
2024-03-09T04:16:00.367Z,1762.560
2024-03-09T04:17:00.621Z,1831.680
2024-03-09T04:18:00.416Z,1854.720
2024-03-09T04:19:00.366Z,1843.200
2024-03-09T04:20:00.533Z,1808.640
2024-03-09T04:21:00.456Z,1797.120
2024-03-09T04:22:00.416Z,1797.120
2024-03-09T04:23:00.579Z,1808.640
2024-03-09T04:24:00.360Z,1820.160
2024-03-09T04:25:00.384Z,1854.720
2024-03-09T04:26:00.485Z,1854.720
2024-03-09T04:27:00.433Z,1843.200
2024-03-09T04:28:00.372Z,1877.760
2024-03-09T04:29:00.489Z,1958.400
2024-03-09T04:30:00.430Z,2050.560
2024-03-09T04:31:00.386Z,2142.720
2024-03-09T04:32:00.399Z,2246.400
2024-03-09T04:33:00.515Z,2327.040
2024-03-09T04:34:00.391Z,2407.680
2024-03-09T04:35:00.462Z,2511.360
2024-03-09T04:36:00.420Z,2592.000
2024-03-09T04:37:00.356Z,2661.120
2024-03-09T04:38:00.395Z,2568.960
2024-03-09T04:39:00.425Z,2511.360
2024-03-09T04:40:00.561Z,2707.200
2024-03-09T04:41:00.431Z,2718.720
2024-03-09T04:42:00.474Z,2638.080
2024-03-09T04:43:00.382Z,2626.560
2024-03-09T04:44:00.448Z,2499.840
2024-03-09T04:45:00.385Z,2649.600
2024-03-09T04:46:00.448Z,2488.320
2024-03-09T04:47:00.490Z,2361.600
2024-03-09T04:48:00.683Z,2269.440
2024-03-09T04:49:00.404Z,2234.880
2024-03-09T04:50:00.547Z,2177.280
2024-03-09T04:51:00.441Z,2211.840
2024-03-09T04:52:00.361Z,2338.560
2024-03-09T04:53:00.488Z,2384.640
2024-03-09T04:54:00.461Z,2557.440
2024-03-09T04:55:00.400Z,2592.000
2024-03-09T04:56:02.359Z,2718.720
2024-03-09T04:57:00.577Z,2810.880
2024-03-09T04:58:00.375Z,2787.840
2024-03-09T04:59:00.543Z,2707.200
2024-03-09T05:00:00.394Z,2580.480
2024-03-09T05:01:00.435Z,2499.840
2024-03-09T05:02:00.435Z,2419.200
2024-03-09T05:03:00.451Z,2661.120
2024-03-09T05:04:00.365Z,2718.720
2024-03-09T05:05:00.429Z,2753.280
2024-03-09T05:06:00.375Z,2799.360
2024-03-09T05:07:00.383Z,2799.360
2024-03-09T05:08:00.374Z,2799.360
2024-03-09T05:09:00.425Z,2822.400
2024-03-09T05:10:00.464Z,2822.400
2024-03-09T05:11:00.543Z,2810.880
2024-03-09T05:12:00.431Z,2833.920
2024-03-09T05:13:00.388Z,2914.560
2024-03-09T05:14:00.501Z,2949.120
2024-03-09T05:15:00.448Z,3041.280
2024-03-09T05:16:00.385Z,3156.480
2024-03-09T05:17:00.425Z,3225.600
2024-03-09T05:18:00.488Z,3248.640
2024-03-09T05:19:00.413Z,3317.760
2024-03-09T05:20:00.489Z,3317.760
2024-03-09T05:21:00.542Z,3363.840
2024-03-09T05:22:00.366Z,3386.880
2024-03-09T05:23:00.420Z,3456.000
2024-03-09T05:24:00.384Z,3755.520
2024-03-09T05:25:00.408Z,11151.360
2024-03-09T05:26:00.474Z,19169.279
2024-03-09T05:27:00.447Z,19353.600
2024-03-09T05:28:00.395Z,15759.360
2024-03-09T05:29:00.457Z,17418.240
2024-03-09T05:30:00.513Z,19261.439
2024-03-09T05:31:00.444Z,19537.920
2024-03-09T05:32:00.394Z,20367.359
2024-03-09T05:33:00.463Z,19537.920
2024-03-09T05:34:00.390Z,21381.119
2024-03-09T05:35:00.568Z,21381.119
2024-03-09T05:36:00.567Z,19906.561
2024-03-09T05:37:00.384Z,21288.961
2024-03-09T05:38:00.705Z,21012.480
2024-03-09T05:39:00.860Z,21381.119
2024-03-09T05:40:00.416Z,21749.760
2024-03-09T05:41:00.482Z,21934.080
2024-03-09T05:42:00.455Z,22394.881
2024-03-09T05:43:00.388Z,22671.359
2024-03-09T05:44:00.500Z,23224.320
2024-03-09T05:45:00.465Z,23592.961
2024-03-09T05:46:00.374Z,23592.961
2024-03-09T05:47:00.408Z,23777.279
2024-03-09T05:48:00.841Z,23777.279
2024-03-09T05:49:00.392Z,23592.961
2024-03-09T05:50:00.561Z,23316.480
2024-03-09T05:51:00.397Z,22947.840
2024-03-09T05:52:00.475Z,23777.279
2024-03-09T05:53:00.452Z,23592.961
2024-03-09T05:54:00.415Z,23316.480
2024-03-09T05:55:00.372Z,23592.961
2024-03-09T05:56:00.418Z,23316.480
2024-03-09T05:57:00.358Z,23592.961
2024-03-09T05:58:00.448Z,23500.801
2024-03-09T05:59:00.484Z,23040.000
2024-03-09T06:00:00.365Z,22302.721
2024-03-09T06:01:00.424Z,22947.840
2024-03-09T06:02:00.429Z,22671.359
2024-03-09T06:03:00.463Z,23316.480
2024-03-09T06:04:00.582Z,23592.961
2024-03-09T06:05:00.460Z,24145.920
2024-03-09T06:06:00.355Z,17694.721
2024-03-09T06:07:00.433Z,23777.279
2024-03-09T06:08:00.622Z,23777.279
2024-03-09T06:09:00.390Z,24330.240
2024-03-09T06:10:00.397Z,23961.600
2024-03-09T06:11:01.843Z,23777.279
2024-03-09T06:12:00.537Z,23592.961
2024-03-09T06:13:00.440Z,23500.801
2024-03-09T06:14:00.426Z,22579.199
2024-03-09T06:15:00.394Z,23500.801
2024-03-09T06:16:00.378Z,23961.600
2024-03-09T06:17:00.499Z,24514.561
2024-03-09T06:18:00.680Z,23500.801
2024-03-09T06:19:00.445Z,22855.680
2024-03-09T06:20:00.526Z,23224.320
2024-03-09T06:21:00.435Z,23592.961
2024-03-09T06:22:00.460Z,23777.279
2024-03-09T06:23:00.429Z,8616.960
2024-03-09T06:24:00.406Z,9722.880
2024-03-09T06:25:00.620Z,5391.360
2024-03-09T06:26:00.442Z,4239.360
2024-03-09T06:27:00.363Z,4032.000
2024-03-09T06:28:00.383Z,4746.240
2024-03-09T06:29:00.404Z,7741.440
2024-03-09T06:30:00.471Z,7096.320
2024-03-09T06:31:00.382Z,4561.920
2024-03-09T06:32:00.419Z,5667.840
2024-03-09T06:33:01.169Z,4216.320
2024-03-09T06:34:00.374Z,3962.880
2024-03-09T06:35:00.417Z,11289.600
2024-03-09T06:36:00.436Z,4147.200
2024-03-09T06:37:00.437Z,4032.000
2024-03-09T06:38:01.097Z,4008.960
2024-03-09T06:39:00.445Z,4078.080
2024-03-09T06:40:00.380Z,4216.320
2024-03-09T06:41:00.525Z,4354.560
2024-03-09T06:42:00.443Z,4746.240
2024-03-09T06:43:00.484Z,4907.520
2024-03-09T06:44:00.396Z,4815.360
2024-03-09T06:45:00.356Z,4976.640
2024-03-09T06:46:00.447Z,5114.880
2024-03-09T06:47:00.512Z,15114.240
2024-03-09T06:48:00.618Z,5990.400
2024-03-09T06:49:00.424Z,5898.240
2024-03-09T06:50:00.423Z,5667.840
2024-03-09T06:51:00.428Z,5575.680
2024-03-09T06:52:00.358Z,5806.080
2024-03-09T06:53:00.505Z,5944.320
2024-03-09T06:54:00.458Z,6312.960
2024-03-09T06:55:00.394Z,5990.400
2024-03-09T06:56:00.467Z,12902.400
2024-03-09T06:57:00.440Z,13086.720
2024-03-09T06:58:00.398Z,6036.480
2024-03-09T06:59:00.453Z,17879.039
2024-03-09T07:00:00.406Z,7511.040
2024-03-09T07:01:00.448Z,7280.640
2024-03-09T07:02:00.461Z,14192.640
2024-03-09T07:03:00.692Z,18616.320
2024-03-09T07:04:00.450Z,17326.080
2024-03-09T07:05:00.464Z,26910.721
2024-03-09T07:06:00.383Z,8524.800
2024-03-09T07:07:00.381Z,10321.920
2024-03-09T07:08:00.485Z,8156.160
2024-03-09T07:09:00.469Z,22118.400
2024-03-09T07:10:00.397Z,11612.160
2024-03-09T07:11:03.750Z,7464.960
2024-03-09T07:12:00.561Z,8110.080
2024-03-09T07:13:00.379Z,7741.440
2024-03-09T07:14:00.458Z,9031.680
2024-03-09T07:15:00.385Z,23777.279
2024-03-09T07:16:00.472Z,18892.801
2024-03-09T07:17:00.534Z,23316.480
2024-03-09T07:18:00.531Z,24514.561
2024-03-09T07:19:00.382Z,16128.000
2024-03-09T07:20:00.408Z,16404.480
2024-03-09T07:21:00.388Z,24145.920
2024-03-09T07:22:00.365Z,11566.080
2024-03-09T07:23:00.478Z,24330.240
2024-03-09T07:24:00.399Z,20459.520
2024-03-09T07:25:00.579Z,23132.160
2024-03-09T07:26:00.495Z,9722.880
2024-03-09T07:27:02.061Z,25620.480
2024-03-09T07:28:00.394Z,9169.920
2024-03-09T07:29:00.463Z,9676.800
2024-03-09T07:30:00.371Z,10690.560
2024-03-09T07:31:00.379Z,12994.560
2024-03-09T07:32:00.473Z,16957.439
2024-03-09T07:33:00.373Z,10506.240
2024-03-09T07:34:00.388Z,23408.641
2024-03-09T07:35:00.395Z,20828.160
2024-03-09T07:36:00.386Z,13547.520
2024-03-09T07:37:00.356Z,14745.600
2024-03-09T07:38:01.690Z,23500.801
2024-03-09T07:39:00.358Z,23040.000
2024-03-09T07:40:00.435Z,15575.040
2024-03-09T07:41:00.427Z,21473.279
2024-03-09T07:42:00.422Z,22026.240
2024-03-09T07:43:00.364Z,21749.760
2024-03-09T07:44:00.422Z,21565.439
2024-03-09T07:45:00.428Z,21565.439
2024-03-09T07:46:00.487Z,21288.961
2024-03-09T07:47:00.548Z,21381.119
2024-03-09T07:48:01.137Z,21196.801
2024-03-09T07:49:00.374Z,21012.480
2024-03-09T07:50:00.511Z,21012.480
2024-03-09T07:51:03.705Z,20920.320
2024-03-09T07:52:00.472Z,21012.480
2024-03-09T07:53:00.448Z,21104.641
2024-03-09T07:54:00.439Z,21104.641
2024-03-09T07:55:00.529Z,21104.641
2024-03-09T07:56:00.527Z,21012.480
2024-03-09T07:57:00.380Z,20828.160
2024-03-09T07:58:09.493Z,20736.000
2024-03-09T07:59:00.387Z,20736.000
2024-03-09T08:00:00.368Z,20643.840
2024-03-09T08:01:00.487Z,20551.680
2024-03-09T08:02:00.515Z,20551.680
2024-03-09T08:03:00.416Z,20643.840
2024-03-09T08:04:00.380Z,20551.680
2024-03-09T08:05:00.403Z,20828.160
2024-03-09T08:06:00.401Z,20828.160
2024-03-09T08:07:02.891Z,20643.840
2024-03-09T08:08:00.398Z,20551.680
2024-03-09T08:09:00.394Z,20459.520
2024-03-09T08:10:00.444Z,20275.199
2024-03-09T08:11:00.405Z,18155.520
2024-03-09T08:12:00.392Z,19906.561
2024-03-09T08:13:00.463Z,19537.920
2024-03-09T08:14:00.428Z,19906.561
2024-03-09T08:15:00.389Z,19814.400
2024-03-09T08:16:00.383Z,19537.920
2024-03-09T08:17:00.454Z,19169.279
2024-03-09T08:18:00.607Z,19630.080
2024-03-09T08:19:00.525Z,19537.920
2024-03-09T08:20:00.501Z,19353.600
2024-03-09T08:21:00.365Z,19630.080
2024-03-09T08:22:00.356Z,19353.600
2024-03-09T08:23:00.487Z,19537.920
2024-03-09T08:24:00.436Z,19906.561
2024-03-09T08:25:00.566Z,19814.400
2024-03-09T08:26:00.408Z,19906.561
2024-03-09T08:27:00.418Z,19722.240
2024-03-09T08:28:00.381Z,19906.561
2024-03-09T08:29:00.446Z,19998.721
2024-03-09T08:30:00.391Z,19353.600
2024-03-09T08:31:00.465Z,19445.760
2024-03-09T08:32:00.418Z,19630.080
2024-03-09T08:33:01.244Z,19630.080
2024-03-09T08:34:00.402Z,19537.920
2024-03-09T08:35:00.508Z,19537.920
2024-03-09T08:36:00.382Z,19353.600
2024-03-09T08:37:00.443Z,19353.600
2024-03-09T08:38:00.598Z,19077.119
2024-03-09T08:39:00.372Z,19261.439
2024-03-09T08:40:00.449Z,18339.840
2024-03-09T08:41:00.490Z,8755.200
2024-03-09T08:42:00.524Z,18984.961
2024-03-09T08:43:00.504Z,16404.480
2024-03-09T08:44:00.504Z,4239.360
2024-03-09T08:45:00.526Z,4838.400
2024-03-09T08:46:00.394Z,18800.641
2024-03-09T08:47:00.435Z,19169.279
2024-03-09T08:48:00.513Z,17786.881
2024-03-09T08:49:00.390Z,4008.960
2024-03-09T08:50:00.420Z,3847.680
2024-03-09T08:51:00.414Z,10414.080
2024-03-09T08:52:00.389Z,18800.641
2024-03-09T08:53:00.603Z,18616.320
2024-03-09T08:54:00.466Z,18616.320
2024-03-09T08:55:00.472Z,18432.000
2024-03-09T08:56:00.411Z,18063.359
2024-03-09T08:57:00.358Z,9768.960
2024-03-09T08:58:00.382Z,14192.640
2024-03-09T08:59:00.468Z,5690.880
2024-03-09T09:00:00.493Z,7280.640
2024-03-09T09:01:00.413Z,17326.080
2024-03-09T09:02:00.448Z,5091.840
2024-03-09T09:03:00.395Z,3916.800
2024-03-09T09:04:00.385Z,3502.080
2024-03-09T09:05:00.589Z,3432.960
2024-03-09T09:06:00.451Z,3363.840
2024-03-09T09:07:00.373Z,3340.800
2024-03-09T09:08:01.034Z,3386.880
2024-03-09T09:09:00.394Z,3432.960
2024-03-09T09:10:00.422Z,3502.080
2024-03-09T09:11:00.550Z,3571.200
2024-03-09T09:12:00.486Z,3640.320
2024-03-09T09:13:00.403Z,3548.160
2024-03-09T09:14:00.485Z,3502.080
2024-03-09T09:15:00.411Z,3640.320
2024-03-09T09:16:00.391Z,3386.880
2024-03-09T09:17:00.444Z,3294.720
2024-03-09T09:18:00.505Z,3248.640
2024-03-09T09:19:00.561Z,3594.240
2024-03-09T09:20:03.908Z,3893.760
2024-03-09T09:21:00.396Z,3847.680
2024-03-09T09:22:00.398Z,3709.440
2024-03-09T09:23:00.491Z,4354.560
2024-03-09T09:24:00.383Z,18708.480
2024-03-09T09:25:00.475Z,18155.520
2024-03-09T09:26:00.649Z,18247.680
2024-03-09T09:27:00.403Z,18247.680
2024-03-09T09:28:00.390Z,18247.680
2024-03-09T09:29:00.452Z,18247.680
2024-03-09T09:30:00.482Z,18524.160
2024-03-09T09:31:00.391Z,18339.840
2024-03-09T09:32:00.448Z,18247.680
2024-03-09T09:33:00.665Z,18063.359
2024-03-09T09:34:00.375Z,17971.199
2024-03-09T09:35:00.439Z,16404.480
2024-03-09T09:36:00.525Z,3755.520
2024-03-09T09:37:00.379Z,3502.080
2024-03-09T09:38:00.738Z,3709.440
2024-03-09T09:39:00.398Z,4930.560
2024-03-09T09:40:00.397Z,15943.680
2024-03-09T09:41:00.603Z,6958.080
2024-03-09T09:42:00.548Z,17141.760
2024-03-09T09:43:00.376Z,17971.199
2024-03-09T09:44:00.410Z,10552.320
2024-03-09T09:45:00.634Z,5529.600
2024-03-09T09:46:03.578Z,6220.800
2024-03-09T09:47:00.493Z,17418.240
2024-03-09T09:48:00.476Z,17418.240
2024-03-09T09:49:00.401Z,17418.240
2024-03-09T09:50:00.512Z,17418.240
2024-03-09T09:51:00.372Z,17418.240
2024-03-09T09:52:00.485Z,10736.640
2024-03-09T09:53:00.561Z,17510.400
2024-03-09T09:54:00.383Z,17786.881
2024-03-09T09:55:00.659Z,17786.881
2024-03-09T09:56:00.542Z,17694.721
2024-03-09T09:57:00.408Z,17786.881
2024-03-09T09:58:00.454Z,17049.600
2024-03-09T09:59:00.516Z,14837.760
2024-03-09T10:00:00.685Z,11427.840
2024-03-09T10:01:00.398Z,16957.439
2024-03-09T10:02:00.404Z,16312.320
2024-03-09T10:03:00.379Z,15114.240
2024-03-09T10:04:00.457Z,15943.680
2024-03-09T10:05:00.424Z,15851.520
2024-03-09T10:06:00.379Z,15390.720
2024-03-09T10:07:00.399Z,8663.040
2024-03-09T10:08:00.658Z,16865.279
2024-03-09T10:09:00.457Z,16773.119
2024-03-09T10:10:00.430Z,16496.641
2024-03-09T10:11:00.644Z,16404.480
2024-03-09T10:12:00.690Z,16128.000
2024-03-09T10:13:00.367Z,14837.760
2024-03-09T10:14:00.391Z,13363.200
2024-03-09T10:15:00.451Z,3847.680
2024-03-09T10:16:00.370Z,4147.200
2024-03-09T10:17:00.385Z,16220.160
2024-03-09T10:18:00.520Z,16404.480
2024-03-09T10:19:00.460Z,16035.840
2024-03-09T10:20:00.521Z,15943.680
2024-03-09T10:21:00.530Z,15851.520
2024-03-09T10:22:00.385Z,15943.680
2024-03-09T10:23:00.429Z,15759.360
2024-03-09T10:24:00.372Z,13547.520
2024-03-09T10:25:00.458Z,16220.160
2024-03-09T10:26:00.390Z,5898.240
2024-03-09T10:27:00.444Z,3962.880
2024-03-09T10:28:00.378Z,3985.920
2024-03-09T10:29:00.422Z,4055.040
2024-03-09T10:30:00.598Z,4423.680
2024-03-09T10:31:00.387Z,7971.840
2024-03-09T10:32:00.488Z,3824.640
2024-03-09T10:33:00.407Z,5667.840
2024-03-09T10:34:00.386Z,5898.240
2024-03-09T10:35:00.442Z,12718.080
2024-03-09T10:36:00.419Z,11566.080
2024-03-09T10:37:00.376Z,11658.240
2024-03-09T10:38:00.443Z,4055.040
2024-03-09T10:39:00.398Z,3847.680
2024-03-09T10:40:00.506Z,4400.640
2024-03-09T10:41:00.465Z,4170.240
2024-03-09T10:42:00.362Z,6958.080
2024-03-09T10:43:00.375Z,6312.960
2024-03-09T10:44:00.470Z,8893.440
2024-03-09T10:45:00.400Z,10137.600
2024-03-09T10:46:00.425Z,5760.000
2024-03-09T10:47:00.407Z,5460.480
2024-03-09T10:48:00.433Z,4032.000
2024-03-09T10:49:00.395Z,8017.920
2024-03-09T10:50:00.491Z,8847.360
2024-03-09T10:51:00.368Z,4423.680
2024-03-09T10:52:00.458Z,9492.480
2024-03-09T10:53:00.410Z,8939.520
2024-03-09T10:54:00.438Z,6589.440
2024-03-09T10:55:00.447Z,5022.720
2024-03-09T10:56:00.392Z,4331.520
2024-03-09T10:57:00.389Z,4055.040
2024-03-09T10:58:00.442Z,4377.600
2024-03-09T10:59:00.395Z,4032.000
2024-03-09T11:00:00.456Z,3985.920
2024-03-09T11:01:00.410Z,4055.040
2024-03-09T11:02:00.535Z,4285.440
2024-03-09T11:03:00.400Z,4078.080
2024-03-09T11:04:00.509Z,4008.960
2024-03-09T11:05:00.451Z,4032.000
2024-03-09T11:06:00.415Z,4170.240
2024-03-09T11:07:00.386Z,5898.240
2024-03-09T11:08:00.497Z,6220.800
2024-03-09T11:09:00.385Z,5875.200
2024-03-09T11:10:00.488Z,5875.200
2024-03-09T11:11:00.538Z,6220.800
2024-03-09T11:12:00.415Z,6266.880
2024-03-09T11:13:00.379Z,5322.240
2024-03-09T11:14:00.467Z,5829.120
2024-03-09T11:15:00.456Z,5368.320
2024-03-09T11:16:00.391Z,3479.040
2024-03-09T11:17:00.579Z,3340.800
2024-03-09T11:18:00.474Z,3179.520
2024-03-09T11:19:00.364Z,3041.280
2024-03-09T11:20:00.483Z,3041.280
2024-03-09T11:21:00.804Z,3179.520
2024-03-09T11:22:00.391Z,3340.800
2024-03-09T11:23:00.600Z,3363.840
2024-03-09T11:24:00.397Z,3202.560
2024-03-09T11:25:00.394Z,3179.520
2024-03-09T11:26:00.540Z,3179.520
2024-03-09T11:27:00.388Z,3064.320
2024-03-09T11:28:00.359Z,2868.480
2024-03-09T11:29:00.511Z,2730.240
2024-03-09T11:30:00.368Z,2880.000
2024-03-09T11:31:00.418Z,2730.240
2024-03-09T11:32:00.705Z,2511.360
2024-03-09T11:33:00.431Z,2338.560
2024-03-09T11:34:00.359Z,2211.840
2024-03-09T11:35:00.496Z,2108.160
2024-03-09T11:36:00.369Z,2050.560
2024-03-09T11:37:00.557Z,2027.520
2024-03-09T11:38:00.409Z,1969.920
2024-03-09T11:39:00.391Z,1923.840
2024-03-09T11:40:00.418Z,1912.320
2024-03-09T11:41:00.454Z,1946.880
2024-03-09T11:42:00.441Z,2039.040
2024-03-09T11:43:00.415Z,2108.160
2024-03-09T11:44:00.432Z,2096.640
2024-03-09T11:45:00.439Z,2062.080
2024-03-09T11:46:00.459Z,2004.480
2024-03-09T11:47:00.484Z,1969.920
2024-03-09T11:48:00.572Z,1981.440
2024-03-09T11:49:00.452Z,1981.440
2024-03-09T11:50:00.569Z,1992.960
2024-03-09T11:51:00.405Z,2177.280
2024-03-09T11:52:00.412Z,2154.240
2024-03-09T11:53:00.547Z,2108.160
2024-03-09T11:54:00.384Z,2165.760
2024-03-09T11:55:00.517Z,2257.920
2024-03-09T11:56:00.411Z,2338.560
2024-03-09T11:57:00.362Z,2384.640